Time;durP1;ratioP1;P1;durP2;ratioP2;P2;SDS_P1;SDS_P2;PMS_P1;PMS_P2;Temp;Humidity;BMP_temperature;BMP_pressure;BME280_temperature;BME280_humidity;BME280_pressure;Samples;Min_cycle;Max_cycle;Signal;HPM_P1;HPM_P2
2021/12/14 00:01:38;;;;;;;19.42;12.55;;;8.40;99.90;;;;;;5023618;28;20045;-93
2021/12/14 00:04:11;;;;;;;19.67;12.07;;;8.40;99.90;;;;;;5008596;28;20041;-91
2021/12/14 00:06:38;;;;;;;19.38;12.30;;;8.40;99.90;;;;;;5002791;28;20052;-91
2021/12/14 00:09:08;;;;;;;18.10;11.32;;;8.40;99.90;;;;;;4999707;28;20045;-91
2021/12/14 00:16:50;;;;;;;20.05;11.30;;;8.40;99.90;;;;;;5016226;28;20068;-91
2021/12/14 00:19:18;;;;;;;18.92;11.13;;;8.70;99.90;;;;;;5001737;28;20437;-92
2021/12/14 00:21:50;;;;;;;18.05;11.68;;;8.40;99.90;;;;;;4998982;28;20102;-92
2021/12/14 00:24:18;;;;;;;18.73;11.85;;;8.40;99.90;;;;;;4982203;28;20041;-92
2021/12/14 00:26:46;;;;;;;19.55;11.65;;;8.60;99.90;;;;;;4980830;28;20049;-92
2021/12/14 00:29:22;;;;;;;20.95;11.40;;;9.30;99.90;;;;;;4997276;28;20076;-92
2021/12/14 00:31:49;;;;;;;19.50;11.85;;;8.40;99.90;;;;;;4995854;28;20192;-92
2021/12/14 00:34:22;;;;;;;20.30;12.00;;;9.70;99.90;;;;;;4996540;28;20053;-92
2021/12/14 00:36:49;;;;;;;18.95;12.07;;;9.40;99.90;;;;;;5009988;28;20041;-92
2021/12/14 00:39:15;;;;;;;18.30;11.68;;;8.30;99.90;;;;;;4985370;28;20056;-92
2021/12/14 00:41:41;;;;;;;16.83;11.10;;;10.10;99.90;;;;;;4993696;28;20046;-91
2021/12/14 00:44:08;;;;;;;18.40;11.30;;;8.60;99.90;;;;;;4980224;28;20643;-92
2021/12/14 00:46:36;;;;;;;24.05;11.88;;;8.60;99.90;;;;;;4982077;28;20037;-93
2021/12/14 00:49:05;;;;;;;19.55;11.45;;;8.30;99.90;;;;;;4989989;28;20439;-91
2021/12/14 00:51:30;;;;;;;18.70;11.82;;;8.70;99.90;;;;;;4989096;28;20543;-92
2021/12/14 00:53:59;;;;;;;18.20;11.45;;;9.00;99.90;;;;;;4959046;28;20029;-92
2021/12/14 00:56:25;;;;;;;18.23;11.57;;;8.30;99.90;;;;;;4994586;28;20037;-91
2021/12/14 00:58:51;;;;;;;18.35;11.90;;;8.40;99.90;;;;;;4981761;28;20044;-92
2021/12/14 01:01:27;;;;;;;17.45;11.20;;;8.80;99.90;;;;;;4997986;28;20033;-91
2021/12/14 01:03:57;;;;;;;18.05;11.23;;;9.60;99.90;;;;;;4990454;28;20068;-91
2021/12/14 01:06:29;;;;;;;18.02;10.63;;;9.50;99.90;;;;;;5012792;28;20045;-92
2021/12/14 01:08:56;;;;;;;17.50;10.40;;;9.40;99.90;;;;;;5013269;28;20073;-92
2021/12/14 01:11:33;;;;;;;16.05;10.52;;;8.30;99.90;;;;;;4998745;28;20042;-93
2021/12/14 01:14:10;;;;;;;17.45;11.07;;;8.30;99.90;;;;;;5020506;28;20049;-92
2021/12/14 01:17:05;;;;;;;18.15;10.25;;;8.30;99.90;;;;;;5017521;28;20133;-92
2021/12/14 01:19:32;;;;;;;16.77;9.77;;;;;;;;;;5010025;28;20077;-94
2021/12/14 01:25:01;;;;;;;16.33;10.20;;;8.30;99.90;;;;;;5024987;28;20038;-92
2021/12/14 01:27:42;;;;;;;17.52;10.27;;;8.30;99.90;;;;;;5005689;28;20041;-92
2021/12/14 01:30:15;;;;;;;16.25;9.98;;;8.30;99.90;;;;;;5013261;28;20083;-91
2021/12/14 01:32:46;;;;;;;;;;;8.30;99.90;;;;;;5022422;28;20030;-93
2021/12/14 01:35:14;;;;;;;16.95;10.65;;;9.20;99.90;;;;;;5014629;28;19920;-91
2021/12/14 01:37:59;;;;;;;17.65;10.23;;;8.30;99.90;;;;;;5014706;28;20106;-92
2021/12/14 01:40:53;;;;;;;19.25;11.52;;;9.10;99.90;;;;;;5012118;28;20042;-92
2021/12/14 01:43:16;;;;;;;17.05;10.98;;;8.30;99.90;;;;;;5015350;28;20037;-92
2021/12/14 01:45:42;;;;;;;17.42;10.95;;;9.70;99.90;;;;;;5001512;28;20110;-92
2021/12/14 01:48:09;;;;;;;17.77;11.18;;;8.30;99.90;;;;;;4997397;28;20038;-91
2021/12/14 01:50:40;;;;;;;18.77;10.68;;;8.30;99.90;;;;;;4997916;28;20111;-93
2021/12/14 01:53:06;;;;;;;17.85;11.52;;;8.40;99.90;;;;;;5014639;28;20163;-92
2021/12/14 01:55:35;;;;;;;18.83;11.18;;;9.00;99.90;;;;;;5017856;28;20034;-92
2021/12/14 01:58:04;;;;;;;17.95;11.48;;;8.40;99.90;;;;;;5030341;28;20045;-92
2021/12/14 02:00:47;;;;;;;19.48;11.57;;;8.30;99.90;;;;;;5026986;28;20033;-92
2021/12/14 02:03:14;;;;;;;18.25;11.68;;;8.30;99.90;;;;;;5026679;28;20045;-91
2021/12/14 02:05:46;;;;;;;19.20;11.88;;;8.30;99.90;;;;;;5005709;28;20054;-92
2021/12/14 02:08:25;;;;;;;18.13;11.57;;;8.30;99.90;;;;;;5025377;28;20033;-92
2021/12/14 02:10:52;;;;;;;18.95;12.10;;;9.10;99.90;;;;;;5028527;28;20069;-91
2021/12/14 02:13:34;;;;;;;18.33;12.82;;;8.30;99.90;;;;;;5024479;28;20099;-93
2021/12/14 02:16:01;;;;;;;18.57;12.17;;;8.60;99.90;;;;;;5014020;28;20060;-91
2021/12/14 02:18:29;;;;;;;19.77;12.27;;;8.40;99.90;;;;;;4993812;28;20048;-91
2021/12/14 02:20:59;;;;;;;20.38;12.02;;;8.80;99.90;;;;;;4989908;28;20097;-91
2021/12/14 02:23:26;;;;;;;19.40;12.98;;;8.30;99.90;;;;;;5013698;28;20041;-91
2021/12/14 02:25:54;;;;;;;18.50;12.52;;;9.10;99.90;;;;;;5025227;28;20121;-93
2021/12/14 02:28:21;;;;;;;21.63;13.05;;;9.30;99.90;;;;;;4992400;28;20564;-92
2021/12/14 02:30:51;;;;;;;19.40;12.93;;;9.10;99.90;;;;;;5005172;28;20041;-92
2021/12/14 02:33:29;;;;;;;21.30;13.65;;;8.30;99.90;;;;;;5010828;28;20429;-92
2021/12/14 02:35:56;;;;;;;19.65;13.55;;;9.00;99.90;;;;;;5003764;28;20041;-91
2021/12/14 02:38:22;;;;;;;23.55;14.50;;;8.30;99.90;;;;;;4985387;28;20045;-92
2021/12/14 02:40:57;;;;;;;22.63;14.48;;;8.30;99.90;;;;;;4990799;28;20033;-92
2021/12/14 02:43:29;;;;;;;22.05;14.25;;;8.30;99.90;;;;;;5016428;28;20084;-92
2021/12/14 02:46:23;;;;;;;22.55;15.23;;;8.30;99.90;;;;;;4998635;28;20138;-92
2021/12/14 02:48:54;;;;;;;23.20;14.65;;;9.70;99.90;;;;;;4967954;28;20072;-92
2021/12/14 02:51:24;;;;;;;23.80;14.63;;;9.10;99.90;;;;;;4994805;28;20033;-92
2021/12/14 02:53:52;;;;;;;24.88;16.10;;;8.30;99.90;;;;;;4999323;28;20243;-93
2021/12/14 02:56:23;;;;;;;23.42;14.98;;;8.20;99.90;;;;;;4999931;28;20045;-92
2021/12/14 02:58:54;;;;;;;22.20;14.43;;;8.50;99.90;;;;;;4999833;28;20045;-92
2021/12/14 03:01:20;;;;;;;23.63;15.35;;;8.30;99.90;;;;;;5013553;28;20049;-93
2021/12/14 03:03:46;;;;;;;27.88;15.63;;;9.50;99.90;;;;;;4995232;28;20053;-93
2021/12/14 03:06:18;;;;;;;21.58;14.40;;;8.70;99.90;;;;;;4992270;28;20053;-92
2021/12/14 03:08:56;;;;;;;23.85;16.02;;;9.20;99.90;;;;;;5010976;28;20045;-92
2021/12/14 03:11:23;;;;;;;25.27;15.68;;;8.20;99.90;;;;;;5016608;28;20073;-92
2021/12/14 03:13:51;;;;;;;22.33;14.75;;;8.90;99.90;;;;;;5009615;28;20041;-92
2021/12/14 03:16:27;;;;;;;28.25;16.25;;;9.50;99.90;;;;;;5028140;28;20052;-92
2021/12/14 03:18:56;;;;;;;23.75;15.80;;;8.20;99.90;;;;;;5017724;28;20033;-92
2021/12/14 03:21:25;;;;;;;23.83;15.52;;;8.90;99.90;;;;;;4998303;28;20156;-92
2021/12/14 03:24:13;;;;;;;24.65;16.17;;;8.20;99.90;;;;;;5012085;28;20072;-92
2021/12/14 03:26:43;;;;;;;23.95;15.57;;;8.20;99.90;;;;;;5016193;28;20045;-92
2021/12/14 03:29:12;;;;;;;24.40;16.45;;;8.20;99.90;;;;;;5017207;28;20079;-92
2021/12/14 03:31:44;;;;;;;25.30;16.45;;;8.60;99.90;;;;;;5005062;28;20120;-91
2021/12/14 03:34:29;;;;;;;23.55;15.98;;;9.30;99.90;;;;;;5015395;28;20065;-92
2021/12/14 03:36:59;;;;;;;25.52;16.92;;;8.20;99.90;;;;;;5017569;28;20041;-92
2021/12/14 03:39:51;;;;;;;24.58;16.60;;;9.30;99.90;;;;;;5016874;28;20556;-91
2021/12/14 03:42:33;;;;;;;26.60;16.60;;;8.20;99.90;;;;;;5009619;28;20116;-91
2021/12/14 03:44:59;;;;;;;24.85;16.17;;;9.30;99.90;;;;;;5013621;28;20037;-92
2021/12/14 03:47:50;;;;;;;27.90;16.63;;;9.70;99.90;;;;;;5025505;28;20039;-91
2021/12/14 03:50:34;;;;;;;26.25;16.73;;;9.40;99.90;;;;;;5024264;28;20057;-93
2021/12/14 03:53:00;;;;;;;25.98;16.85;;;8.20;99.90;;;;;;5011015;28;20500;-91
2021/12/14 03:55:32;;;;;;;26.40;17.42;;;8.10;99.90;;;;;;5005459;28;20037;-92
2021/12/14 03:57:58;;;;;;;25.00;16.80;;;8.20;99.90;;;;;;5032914;28;20052;-93
2021/12/14 04:00:32;;;;;;;24.95;17.15;;;8.40;99.90;;;;;;5005861;28;20049;-92
2021/12/14 04:03:04;;;;;;;25.45;16.80;;;8.80;99.90;;;;;;5027761;28;20038;-92
2021/12/14 04:05:30;;;;;;;27.48;17.30;;;8.20;99.90;;;;;;5008802;28;20068;-92
2021/12/14 04:07:56;;;;;;;26.77;17.33;;;8.20;99.90;;;;;;4994960;28;20061;-92
2021/12/14 04:10:29;;;;;;;26.95;17.23;;;9.40;99.90;;;;;;5020198;28;20038;-93
2021/12/14 04:12:56;;;;;;;25.98;16.42;;;8.90;99.90;;;;;;5014019;28;20094;-92
2021/12/14 04:15:23;;;;;;;24.85;16.98;;;8.70;99.90;;;;;;5009072;28;20034;-92
2021/12/14 04:17:49;;;;;;;25.88;17.55;;;8.20;99.90;;;;;;5013317;28;20041;-93
2021/12/14 04:20:22;;;;;;;25.38;16.90;;;9.00;99.90;;;;;;4999073;28;20057;-92
2021/12/14 04:22:49;;;;;;;27.00;17.55;;;9.10;99.90;;;;;;5017751;28;20045;-93
2021/12/14 04:25:22;;;;;;;28.52;17.75;;;8.80;99.90;;;;;;4996729;28;20462;-91
2021/12/14 04:27:51;;;;;;;27.52;18.52;;;8.90;99.90;;;;;;5015925;28;20065;-93
2021/12/14 04:30:19;;;;;;;27.65;17.58;;;8.20;99.90;;;;;;5016211;28;20063;-93
2021/12/14 04:32:50;;;;;;;28.70;18.10;;;9.10;99.90;;;;;;5012122;28;20041;-93
2021/12/14 04:35:17;;;;;;;27.65;17.75;;;9.00;99.90;;;;;;5014302;28;20491;-92
2021/12/14 04:37:46;;;;;;;29.77;18.45;;;8.90;99.90;;;;;;4976728;28;20069;-93
2021/12/14 04:40:35;;;;;;;24.73;16.60;;;8.20;99.90;;;;;;4997504;28;20038;-92
2021/12/14 04:54:14;;;;;;;26.90;16.90;;;8.30;99.90;;;;;;5016591;28;20042;-93
2021/12/14 04:56:43;;;;;;;26.50;17.92;;;8.20;99.90;;;;;;4995495;28;20045;-92
2021/12/14 04:59:27;;;;;;;28.27;17.95;;;8.60;99.90;;;;;;5028070;28;20076;-92
2021/12/14 05:01:58;;;;;;;28.65;18.58;;;8.20;99.90;;;;;;5022121;28;20038;-93
2021/12/14 05:04:25;;;;;;;29.38;18.35;;;8.40;99.90;;;;;;5012238;28;20049;-92
2021/12/14 05:06:57;;;;;;;28.02;17.75;;;8.20;99.90;;;;;;4982521;28;20041;-92
2021/12/14 05:09:30;;;;;;;28.77;18.45;;;8.30;99.90;;;;;;4991139;28;20044;-92
2021/12/14 05:11:57;;;;;;;29.30;18.58;;;9.60;99.90;;;;;;4998888;28;20044;-92
2021/12/14 05:14:26;;;;;;;29.92;17.90;;;8.40;99.90;;;;;;4997929;28;20073;-92
2021/12/14 05:16:58;;;;;;;29.48;18.60;;;9.20;99.90;;;;;;4999674;28;20046;-92
2021/12/14 05:19:26;;;;;;;30.08;19.38;;;8.20;99.90;;;;;;4991533;28;20124;-92
2021/12/14 05:21:54;;;;;;;27.85;18.38;;;9.40;99.90;;;;;;4997684;28;20130;-92
2021/12/14 05:24:23;;;;;;;27.77;18.40;;;9.60;99.90;;;;;;4976234;28;20038;-92
2021/12/14 05:26:59;;;;;;;29.52;18.92;;;8.20;99.90;;;;;;4999908;28;20037;-92
2021/12/14 05:29:27;;;;;;;28.38;18.80;;;8.20;99.90;;;;;;4994843;28;20037;-93
2021/12/14 05:31:54;;;;;;;28.80;19.45;;;8.20;99.90;;;;;;4999411;28;20044;-95
2021/12/14 05:34:25;;;;;;;31.90;20.70;;;8.60;99.90;;;;;;5006205;28;20041;-92
2021/12/14 05:36:51;;;;;;;29.05;19.30;;;8.70;99.90;;;;;;4996960;28;20046;-92
2021/12/14 05:44:44;;;;;;;30.23;20.58;;;8.20;99.90;;;;;;5015330;28;20188;-92
2021/12/14 05:47:13;;;;;;;32.90;19.33;;;8.20;99.90;;;;;;4998959;28;20045;-92
2021/12/14 05:49:42;;;;;;;29.67;18.42;;;9.40;99.90;;;;;;4999642;28;20084;-92
2021/12/14 05:52:25;;;;;;;28.50;18.70;;;8.20;99.90;;;;;;5003170;28;20037;-92
2021/12/14 05:54:55;;;;;;;30.95;20.30;;;8.20;99.90;;;;;;5016881;28;20112;-92
2021/12/14 05:57:25;;;;;;;31.05;19.15;;;8.20;99.90;;;;;;5011109;28;20060;-94
2021/12/14 05:59:52;;;;;;;30.45;20.38;;;9.00;99.90;;;;;;5008139;28;20087;-91
2021/12/14 06:02:19;;;;;;;32.22;20.52;;;8.90;99.90;;;;;;4996589;28;20033;-92
2021/12/14 06:04:48;;;;;;;30.63;20.00;;;8.20;99.90;;;;;;4960287;28;20533;-92
2021/12/14 06:07:15;;;;;;;34.35;21.13;;;9.50;99.90;;;;;;4991636;28;20041;-91
2021/12/14 06:09:44;;;;;;;32.40;20.95;;;8.10;99.90;;;;;;4997046;28;20041;-93
2021/12/14 06:12:21;;;;;;;31.30;21.17;;;8.90;99.90;;;;;;4997774;28;20196;-92
2021/12/14 06:14:52;;;;;;;30.88;20.17;;;8.10;99.90;;;;;;4995699;28;20053;-93
2021/12/14 06:17:25;;;;;;;31.60;20.35;;;8.10;99.90;;;;;;5006407;28;20045;-92
2021/12/14 06:20:00;;;;;;;29.98;19.98;;;8.20;99.90;;;;;;5014641;28;20041;-94
2021/12/14 06:22:26;;;;;;;37.17;21.85;;;8.20;99.90;;;;;;5001046;28;20102;-92
2021/12/14 06:24:59;;;;;;;31.50;20.98;;;8.50;99.90;;;;;;5014102;28;20037;-92
2021/12/14 06:27:28;;;;;;;32.33;21.52;;;8.80;99.90;;;;;;5010479;28;20034;-93
2021/12/14 06:30:00;;;;;;;33.33;20.67;;;8.20;99.90;;;;;;4999269;28;20039;-93
2021/12/14 06:32:30;;;;;;;36.17;21.65;;;8.20;99.90;;;;;;4998187;28;20121;-92
2021/12/14 06:35:10;;;;;;;33.10;20.85;;;8.20;99.90;;;;;;4992637;28;20069;-92
2021/12/14 06:40:30;;;;;;;36.50;21.85;;;8.20;99.90;;;;;;5009769;28;20052;-92
2021/12/14 06:43:00;;;;;;;38.75;22.70;;;8.60;99.90;;;;;;5014927;28;20045;-92
2021/12/14 06:45:32;;;;;;;35.05;21.52;;;8.20;99.90;;;;;;4999640;28;20049;-93
2021/12/14 06:48:22;;;;;;;34.38;22.90;;;8.20;99.90;;;;;;5015046;28;20038;-93
2021/12/14 06:50:53;;;;;;;36.22;22.38;;;9.00;99.90;;;;;;4989207;28;20421;-92
2021/12/14 06:53:21;;;;;;;35.42;23.25;;;8.20;99.90;;;;;;5004530;28;20112;-92
2021/12/14 06:55:50;;;;;;;34.35;23.20;;;8.20;99.90;;;;;;5003893;28;20045;-92
2021/12/14 06:58:38;;;;;;;36.15;22.70;;;9.30;99.90;;;;;;5001634;28;20052;-92
2021/12/14 07:01:12;;;;;;;32.90;21.73;;;8.20;99.90;;;;;;5001364;28;20052;-92
2021/12/14 07:04:06;;;;;;;36.15;23.52;;;8.20;99.90;;;;;;5008478;28;20044;-91
2021/12/14 07:06:40;;;;;;;36.10;22.90;;;8.20;99.90;;;;;;5019960;28;20107;-93
2021/12/14 07:09:12;;;;;;;39.53;24.33;;;8.20;99.90;;;;;;5008049;28;20034;-89
2021/12/14 07:11:41;;;;;;;35.42;23.42;;;8.20;99.90;;;;;;5028170;28;20037;-92
2021/12/14 07:14:40;;;;;;;37.90;24.25;;;8.20;99.90;;;;;;5011281;28;20087;-91
2021/12/14 07:17:12;;;;;;;34.42;22.75;;;8.20;99.90;;;;;;5008141;28;20049;-91
2021/12/14 07:19:43;;;;;;;36.67;23.80;;;8.30;99.90;;;;;;5013755;28;20040;-94
2021/12/14 07:22:30;;;;;;;37.40;25.00;;;8.20;99.90;;;;;;5011961;28;20148;-90
2021/12/14 07:25:02;;;;;;;37.08;24.10;;;8.20;99.90;;;;;;5009511;28;20038;-93
2021/12/14 07:27:30;;;;;;;43.33;25.08;;;8.20;99.90;;;;;;5012822;28;20048;-91
2021/12/14 07:30:17;;;;;;;38.88;23.95;;;8.20;99.90;;;;;;5029341;28;20128;-90
2021/12/14 07:33:07;;;;;;;38.05;25.30;;;8.20;99.90;;;;;;5023915;28;20037;-92
2021/12/14 07:36:02;;;;;;;38.97;24.25;;;8.20;99.90;;;;;;5030555;28;20057;-93
2021/12/14 07:38:42;;;;;;;39.55;25.83;;;8.20;99.90;;;;;;5029364;28;20033;-96
2021/12/14 07:41:07;;;;;;;39.65;24.80;;;9.20;99.90;;;;;;5017932;28;20080;-92
2021/12/14 07:43:54;;;;;;;43.22;26.02;;;8.90;99.90;;;;;;5018193;28;20076;-91
2021/12/14 07:46:42;;;;;;;43.13;26.08;;;8.10;99.90;;;;;;5009155;28;20091;-92
2021/12/14 07:49:19;;;;;;;44.22;26.85;;;8.20;99.90;;;;;;5010190;28;20322;-93
2021/12/14 07:51:47;;;;;;;40.95;25.42;;;8.10;99.90;;;;;;5022550;28;20109;-92
2021/12/14 07:54:26;;;;;;;46.22;27.48;;;9.50;99.90;;;;;;5008660;28;20124;-92
2021/12/14 07:57:04;;;;;;;44.97;27.85;;;8.10;99.90;;;;;;5029975;28;20045;-90
2021/12/14 07:59:32;;;;;;;44.47;26.98;;;9.50;99.90;;;;;;5011898;28;20161;-92
2021/12/14 08:02:27;;;;;;;42.90;26.05;;;8.10;99.90;;;;;;5014295;28;20045;-94
2021/12/14 08:04:55;;;;;;;47.50;27.83;;;8.10;99.90;;;;;;5011457;28;20049;-93
2021/12/14 08:07:31;;;;;;;48.75;29.58;;;8.10;99.90;;;;;;5005375;28;20068;-92
2021/12/14 08:10:08;;;;;;;47.35;27.65;;;8.10;99.90;;;;;;5007548;28;20030;-91
2021/12/14 08:12:46;;;;;;;46.85;28.50;;;8.20;99.90;;;;;;5020164;28;20030;-91
2021/12/14 08:15:22;;;;;;;48.92;28.92;;;8.10;99.90;;;;;;5016091;28;20037;-92
2021/12/14 08:18:20;;;;;;;48.08;29.33;;;8.10;99.90;;;;;;5014096;28;20037;-92
2021/12/14 08:20:55;;;;;;;46.33;28.42;;;8.60;99.90;;;;;;5005330;28;20068;-92
2021/12/14 08:23:23;;;;;;;48.70;29.23;;;8.20;99.90;;;;;;5004930;28;20048;-91
2021/12/14 08:25:53;;;;;;;52.10;28.80;;;8.20;99.90;;;;;;4999302;28;20034;-90
2021/12/14 08:28:21;;;;;;;49.05;28.38;;;8.20;99.90;;;;;;5008924;28;20034;-90
2021/12/14 08:31:07;;;;;;;50.58;28.63;;;8.20;99.90;;;;;;5003794;28;20047;-90
2021/12/14 08:33:33;;;;;;;46.92;28.05;;;8.20;99.90;;;;;;5016256;28;20073;-90
2021/12/14 08:36:02;;;;;;;48.40;28.95;;;9.00;99.90;;;;;;4998362;28;20029;-88
2021/12/14 08:38:32;;;;;;;51.80;30.38;;;8.20;99.90;;;;;;5003123;28;20044;-90
2021/12/14 08:41:08;;;;;;;46.28;27.65;;;8.20;99.90;;;;;;4993940;28;20046;-88
2021/12/14 08:43:35;;;;;;;49.13;29.17;;;8.70;99.90;;;;;;5012583;28;20033;-94
2021/12/14 08:46:20;;;;;;;48.65;28.73;;;8.20;99.90;;;;;;5000535;28;20041;-96
2021/12/14 08:48:58;;;;;;;49.03;27.77;;;7.70;99.90;;;;;;5008391;28;20037;-94
2021/12/14 08:51:40;;;;;;;48.22;28.55;;;8.20;99.90;;;;;;5008213;28;20056;-90
2021/12/14 08:54:28;;;;;;;50.40;28.17;;;8.60;99.90;;;;;;5029385;28;20160;-90
2021/12/14 08:57:15;;;;;;;52.15;28.08;;;8.20;99.90;;;;;;5011264;28;20038;-88
2021/12/14 08:59:45;;;;;;;50.53;28.17;;;9.20;99.90;;;;;;5015611;28;20072;-93
2021/12/14 09:02:13;;;;;;;49.03;27.77;;;9.20;99.90;;;;;;5024394;28;20052;-92
2021/12/14 09:04:53;;;;;;;45.35;26.67;;;8.30;99.90;;;;;;4988828;28;20060;-96
2021/12/14 09:07:25;;;;;;;46.60;27.85;;;8.30;99.90;;;;;;4994996;28;20037;-92
2021/12/14 09:09:53;;;;;;;50.58;27.70;;;8.30;99.90;;;;;;5011323;28;20502;-93
2021/12/14 09:12:18;;;;;;;54.63;29.52;;;8.30;99.90;;;;;;4976364;28;20064;-93
2021/12/14 09:14:48;;;;;;;47.20;27.13;;;8.30;99.90;;;;;;4998628;28;20564;-91
2021/12/14 09:17:17;;;;;;;52.13;29.70;;;8.30;99.90;;;;;;4996041;28;20048;-95
2021/12/14 09:19:51;;;;;;;48.00;27.85;;;8.90;99.90;;;;;;5015251;28;20076;-94
2021/12/14 09:22:22;;;;;;;48.63;28.85;;;8.30;99.90;;;;;;4991538;28;20069;-90
2021/12/14 09:24:49;;;;;;;48.95;28.67;;;8.30;99.90;;;;;;4997590;28;20047;-93
2021/12/14 09:27:20;;;;;;;52.53;28.50;;;8.30;99.90;;;;;;4973955;28;20414;-88
2021/12/14 09:29:50;;;;;;;51.40;29.23;;;8.40;99.90;;;;;;5013205;28;20077;-90
2021/12/14 09:32:21;;;;;;;50.75;28.55;;;8.20;99.90;;;;;;4969798;28;20100;-92
2021/12/14 09:34:47;;;;;;;57.78;30.45;;;8.40;99.90;;;;;;4977021;28;20077;-90
2021/12/14 09:37:14;;;;;;;55.50;29.58;;;8.40;99.90;;;;;;4980876;28;20038;-92
2021/12/14 09:39:45;;;;;;;52.92;28.55;;;8.40;99.90;;;;;;4978747;28;20120;-87
2021/12/14 09:42:18;;;;;;;48.97;28.90;;;8.40;99.90;;;;;;4994506;28;20354;-90
2021/12/14 09:44:46;;;;;;;55.63;29.25;;;9.60;99.90;;;;;;5010499;28;20417;-89
2021/12/14 09:47:18;;;;;;;50.10;28.42;;;9.40;99.90;;;;;;5006730;28;20045;-90
2021/12/14 09:49:46;;;;;;;50.53;28.73;;;8.50;99.90;;;;;;5007768;28;20067;-89
2021/12/14 09:52:17;;;;;;;53.08;29.98;;;9.20;99.90;;;;;;5014254;28;20044;-88
2021/12/14 09:54:43;;;;;;;50.50;28.15;;;8.60;99.90;;;;;;5012803;28;20041;-90
2021/12/14 09:57:25;;;;;;;49.38;28.33;;;8.60;99.90;;;;;;5004884;28;20042;-90
2021/12/14 09:59:52;;;;;;;49.13;29.25;;;8.60;99.90;;;;;;5000719;28;20076;-90
2021/12/14 10:02:36;;;;;;;49.85;28.20;;;7.90;99.90;;;;;;4999691;28;20056;-92
2021/12/14 10:05:35;;;;;;;47.25;28.58;;;8.60;99.90;;;;;;5014648;28;20150;-93
2021/12/14 10:08:17;;;;;;;45.53;27.10;;;8.60;99.90;;;;;;5015265;28;20096;-92
2021/12/14 10:10:53;;;;;;;46.43;26.80;;;8.70;99.90;;;;;;5013658;28;20037;-89
2021/12/14 10:13:19;;;;;;;44.80;26.25;;;8.60;99.90;;;;;;5009480;28;20276;-91
2021/12/14 10:15:49;;;;;;;48.15;26.38;;;8.70;99.90;;;;;;5000918;28;20087;-92
2021/12/14 10:18:24;;;;;;;47.25;27.00;;;8.70;99.90;;;;;;5017556;28;20048;-91
2021/12/14 10:21:37;;;;;;;44.33;26.10;;;8.70;99.90;;;;;;5017171;28;20088;-90
2021/12/14 10:24:47;;;;;;;40.28;24.38;;;8.70;99.90;;;;;;5008483;28;20116;-90
2021/12/14 10:27:20;;;;;;;42.17;25.10;;;8.70;99.90;;;;;;5022885;28;20033;-94
2021/12/14 10:29:46;;;;;;;41.65;24.30;;;8.70;99.90;;;;;;5018801;28;20617;-87
2021/12/14 10:32:20;;;;;;;44.55;25.67;;;8.70;99.90;;;;;;5016073;28;20227;-94
2021/12/14 10:34:51;;;;;;;41.90;24.30;;;8.70;99.90;;;;;;5027543;28;20068;-91
2021/12/14 10:37:25;;;;;;;42.45;25.00;;;8.70;99.90;;;;;;5013742;28;20092;-89
2021/12/14 10:43:07;;;;;;;40.55;24.23;;;9.40;99.90;;;;;;5031644;28;20041;-92
2021/12/14 10:45:34;;;;;;;43.13;23.95;;;8.80;99.90;;;;;;5011668;28;20069;-93
2021/12/14 10:48:08;;;;;;;43.60;24.25;;;8.70;99.90;;;;;;5011920;28;20046;-89
2021/12/14 10:50:36;;;;;;;40.35;23.65;;;8.30;99.90;;;;;;5032974;28;20501;-93
2021/12/14 10:53:05;;;;;;;40.13;24.40;;;;;;;;;;5001056;28;20034;-92
2021/12/14 10:55:39;;;;;;;38.63;23.65;;;8.80;99.90;;;;;;4961498;28;20113;-91
2021/12/14 10:58:07;;;;;;;41.17;23.30;;;8.80;99.90;;;;;;5024996;28;20438;-88
2021/12/14 11:00:57;;;;;;;37.05;22.60;;;8.80;99.90;;;;;;4997094;28;20071;-89
2021/12/14 11:03:30;;;;;;;40.00;23.02;;;8.80;99.90;;;;;;5029657;28;20068;-88
2021/12/14 11:06:04;;;;;;;40.92;23.25;;;8.80;99.90;;;;;;5008306;28;20056;-91
2021/12/14 11:08:40;;;;;;;38.70;22.23;;;;;;;;;;5014202;28;20487;-93
2021/12/14 11:12:13;;;;;;;37.72;22.35;;;8.80;99.90;;;;;;5011963;28;20041;-91
2021/12/14 11:18:15;;;;;;;39.58;22.33;;;8.80;99.90;;;;;;4914576;29;20051;-94
2021/12/14 11:21:27;;;;;;;34.42;20.88;;;8.80;99.90;;;;;;4917657;29;20058;-90
2021/12/14 11:23:59;;;;;;;34.10;21.05;;;8.90;99.90;;;;;;5005835;28;20049;-91
2021/12/14 11:26:34;;;;;;;38.00;21.98;;;8.80;99.90;;;;;;5018207;28;20457;-92
2021/12/14 11:29:10;;;;;;;41.70;22.67;;;8.90;99.90;;;;;;5015073;28;20045;-91
2021/12/14 11:32:02;;;;;;;36.25;21.88;;;9.00;99.90;;;;;;5013313;28;20046;-94
2021/12/14 11:34:39;;;;;;;33.92;20.65;;;8.90;99.90;;;;;;5009941;28;20033;-92
2021/12/14 11:37:16;;;;;;;36.15;22.17;;;8.80;99.90;;;;;;5013740;28;20457;-92
2021/12/14 11:39:49;;;;;;;35.72;21.20;;;8.90;99.90;;;;;;5031573;28;20056;-93
2021/12/14 11:42:25;;;;;;;35.33;20.92;;;8.90;99.90;;;;;;5008203;28;20102;-95
2021/12/14 11:45:09;;;;;;;37.72;22.25;;;8.90;99.90;;;;;;4994896;28;20037;-91
2021/12/14 11:50:28;;;;;;;36.92;21.23;;;8.90;99.90;;;;;;5032850;28;20033;-94
2021/12/14 11:53:00;;;;;;;38.38;21.38;;;10.00;99.90;;;;;;5006922;28;20041;-95
2021/12/14 11:55:50;;;;;;;39.15;21.67;;;8.90;99.90;;;;;;5019022;28;20083;-93
2021/12/14 11:58:26;;;;;;;40.75;22.30;;;8.90;99.90;;;;;;5019097;28;20044;-94
2021/12/14 12:01:11;;;;;;;39.80;22.58;;;8.90;99.90;;;;;;5015572;28;20040;-95
2021/12/14 12:04:07;;;;;;;39.08;21.73;;;8.90;99.90;;;;;;5015553;28;20125;-94
2021/12/14 12:09:37;;;;;;;37.03;20.88;;;9.50;99.90;;;;;;5020471;28;20052;-95
2021/12/14 12:12:03;;;;;;;39.80;21.73;;;8.90;99.90;;;;;;5018441;28;20140;-95
2021/12/14 12:14:54;;;;;;;38.47;20.98;;;8.90;99.90;;;;;;5015117;28;20508;-95
2021/12/14 12:17:32;;;;;;;35.67;19.95;;;8.90;99.90;;;;;;5028786;28;20076;-95
2021/12/14 12:20:15;;;;;;;38.08;21.25;;;8.90;99.90;;;;;;5010559;28;20099;-94
2021/12/14 12:22:44;;;;;;;37.40;20.23;;;8.90;99.90;;;;;;5004245;28;20645;-94
2021/12/14 12:25:17;;;;;;;34.30;19.88;;;8.90;99.90;;;;;;5025748;28;20482;-94
2021/12/14 12:27:47;;;;;;;;;;;8.90;99.90;;;;;;5016089;28;20280;-93
2021/12/14 12:30:32;;;;;;;35.40;19.23;;;8.90;99.90;;;;;;5007432;28;19921;-93
2021/12/14 12:33:24;;;;;;;35.20;20.08;;;8.90;99.90;;;;;;5028808;28;20040;-90
2021/12/14 12:35:50;;;;;;;37.00;18.75;;;8.10;99.90;;;;;;5011960;28;20042;-92
2021/12/14 12:38:49;;;;;;;32.80;19.05;;;8.90;99.90;;;;;;5004327;28;20414;-93
2021/12/14 12:41:27;;;;;;;33.65;18.00;;;8.90;99.90;;;;;;5014001;28;20076;-93
2021/12/14 12:44:20;;;;;;;33.80;18.95;;;8.90;99.90;;;;;;5017257;28;20041;-92
2021/12/14 12:47:04;;;;;;;33.03;17.83;;;9.00;99.90;;;;;;5022414;28;20048;-93
2021/12/14 12:49:41;;;;;;;28.98;15.70;;;9.00;99.90;;;;;;5020117;28;20050;-93
2021/12/14 12:52:12;;;;;;;32.65;16.67;;;9.00;99.90;;;;;;5011494;28;20037;-91
2021/12/14 12:55:06;;;;;;;31.75;16.63;;;9.00;99.90;;;;;;5024525;28;20029;-91
2021/12/14 12:57:41;;;;;;;33.70;18.02;;;9.00;99.90;;;;;;5019737;28;20044;-91
2021/12/14 13:00:27;;;;;;;32.80;17.40;;;9.00;99.90;;;;;;5026278;28;20054;-91
2021/12/14 13:03:11;;;;;;;33.17;17.77;;;9.00;99.90;;;;;;5021243;28;20140;-92
2021/12/14 13:05:43;;;;;;;33.30;15.70;;;9.00;99.90;;;;;;5032496;28;20041;-94
2021/12/14 13:08:18;;;;;;;34.40;17.67;;;9.00;99.90;;;;;;5023469;28;20042;-96
2021/12/14 13:11:15;;;;;;;33.22;17.25;;;9.00;99.90;;;;;;5024205;28;20042;-91
2021/12/14 13:14:18;;;;;;;30.75;15.95;;;9.00;99.90;;;;;;5013499;28;20091;-91
2021/12/14 13:16:56;;;;;;;;;;;;;;;;;;;;;
2021/12/14 13:19:41;;;;;;;31.50;16.13;;;8.90;99.90;;;;;;5023511;28;20045;-95
2021/12/14 13:22:19;;;;;;;34.58;16.58;;;9.00;99.90;;;;;;5013202;28;20127;-92
2021/12/14 13:24:47;;;;;;;31.27;16.33;;;9.00;99.90;;;;;;5011071;28;20049;-89
2021/12/14 13:27:17;;;;;;;32.75;16.10;;;9.00;99.90;;;;;;4993849;28;20493;-90
2021/12/14 13:29:49;;;;;;;35.17;16.58;;;9.00;99.90;;;;;;5006783;28;20453;-92
2021/12/14 13:32:36;;;;;;;32.92;16.25;;;9.60;99.90;;;;;;5010052;28;20040;-93
2021/12/14 13:35:13;;;;;;;32.42;15.68;;;9.00;99.90;;;;;;4994548;28;20037;-91
2021/12/14 13:37:59;;;;;;;34.78;17.33;;;9.00;99.90;;;;;;5008552;28;20564;-92
2021/12/14 13:40:37;;;;;;;32.10;16.10;;;9.00;99.90;;;;;;5011188;28;20081;-91
2021/12/14 13:43:38;;;;;;;29.40;15.25;;;8.90;99.90;;;;;;5013284;28;20033;-91
2021/12/14 13:46:05;;;;;;;28.27;14.10;;;9.00;99.90;;;;;;4972397;28;20046;-91
2021/12/14 13:48:45;;;;;;;28.73;14.27;;;9.00;99.90;;;;;;5010626;28;20038;-91
2021/12/14 13:51:19;;;;;;;29.42;14.68;;;9.90;99.90;;;;;;5023087;28;20061;-92
2021/12/14 13:53:47;;;;;;;30.25;14.73;;;8.90;99.90;;;;;;5000398;28;20044;-92
2021/12/14 13:56:38;;;;;;;28.42;14.43;;;8.90;99.90;;;;;;4991259;28;20103;-90
2021/12/14 13:59:09;;;;;;;26.88;13.88;;;9.00;99.90;;;;;;5019158;28;20103;-90